sensor_id;sensor_type;location;lat;lon;timestamp;pressure;altitude;pressure_sealevel;temperature;humidity
31357;BME280;60001;48.404;11.738;2023-02-18T00:01:14;97105.41;;;11.79;72.50
31357;BME280;60001;48.404;11.738;2023-02-18T00:02:46;97100.00;;;11.74;73.01
31357;BME280;60001;48.404;11.738;2023-02-18T00:04:18;97095.22;;;11.71;72.69
31357;BME280;60001;48.404;11.738;2023-02-18T00:05:50;97095.53;;;11.75;72.64
31357;BME280;60001;48.404;11.738;2023-02-18T00:07:24;97098.75;;;11.77;73.02
31357;BME280;60001;48.404;11.738;2023-02-18T00:08:56;97104.38;;;11.80;72.50
31357;BME280;60001;48.404;11.738;2023-02-18T00:10:31;97109.66;;;11.80;72.40
31357;BME280;60001;48.404;11.738;2023-02-18T00:12:03;97088.72;;;11.79;72.64
31357;BME280;60001;48.404;11.738;2023-02-18T00:13:35;97088.97;;;11.77;72.57
31357;BME280;60001;48.404;11.738;2023-02-18T00:15:08;97096.19;;;11.82;72.82
31357;BME280;60001;48.404;11.738;2023-02-18T00:16:41;97095.41;;;11.82;72.67
31357;BME280;60001;48.404;11.738;2023-02-18T00:18:13;97099.09;;;11.80;72.24
31357;BME280;60001;48.404;11.738;2023-02-18T00:19:44;97083.84;;;11.71;72.53
31357;BME280;60001;48.404;11.738;2023-02-18T00:21:16;97101.72;;;11.80;73.09
31357;BME280;60001;48.404;11.738;2023-02-18T00:22:49;97095.31;;;11.76;72.68
31357;BME280;60001;48.404;11.738;2023-02-18T00:24:21;97088.41;;;11.75;72.69
31357;BME280;60001;48.404;11.738;2023-02-18T00:25:59;97094.97;;;11.73;73.09
31357;BME280;60001;48.404;11.738;2023-02-18T00:27:30;97096.34;;;11.75;73.40
31357;BME280;60001;48.404;11.738;2023-02-18T00:29:02;97078.28;;;11.72;72.92
31357;BME280;60001;48.404;11.738;2023-02-18T00:30:39;97091.28;;;11.74;73.16
31357;BME280;60001;48.404;11.738;2023-02-18T00:32:10;97090.41;;;11.68;73.42
31357;BME280;60001;48.404;11.738;2023-02-18T00:33:42;97094.66;;;11.69;73.66
31357;BME280;60001;48.404;11.738;2023-02-18T00:35:14;97087.28;;;11.71;73.75
31357;BME280;60001;48.404;11.738;2023-02-18T00:36:46;97097.31;;;11.69;73.43
31357;BME280;60001;48.404;11.738;2023-02-18T00:38:19;97090.06;;;11.65;74.08
31357;BME280;60001;48.404;11.738;2023-02-18T00:39:51;97092.47;;;11.66;74.01
31357;BME280;60001;48.404;11.738;2023-02-18T00:41:26;97091.38;;;11.62;74.04
31357;BME280;60001;48.404;11.738;2023-02-18T00:42:58;97089.28;;;11.64;73.92
31357;BME280;60001;48.404;11.738;2023-02-18T00:44:29;97077.00;;;11.58;74.38
31357;BME280;60001;48.404;11.738;2023-02-18T00:46:01;97088.63;;;11.57;74.11
31357;BME280;60001;48.404;11.738;2023-02-18T00:47:32;97086.53;;;11.59;74.42
31357;BME280;60001;48.404;11.738;2023-02-18T00:49:04;97082.84;;;11.60;74.28
31357;BME280;60001;48.404;11.738;2023-02-18T00:50:36;97088.13;;;11.60;74.77
31357;BME280;60001;48.404;11.738;2023-02-18T00:52:08;97079.41;;;11.60;74.68
31357;BME280;60001;48.404;11.738;2023-02-18T00:53:41;97085.41;;;11.55;74.80
31357;BME280;60001;48.404;11.738;2023-02-18T00:55:13;97079.16;;;11.61;74.42
31357;BME280;60001;48.404;11.738;2023-02-18T00:56:44;97083.97;;;11.64;74.07
31357;BME280;60001;48.404;11.738;2023-02-18T00:58:16;97073.66;;;11.63;74.20
31357;BME280;60001;48.404;11.738;2023-02-18T00:59:47;97080.44;;;11.59;74.58
31357;BME280;60001;48.404;11.738;2023-02-18T01:01:19;97079.16;;;11.61;74.52
31357;BME280;60001;48.404;11.738;2023-02-18T01:02:51;97078.13;;;11.62;74.38
31357;BME280;60001;48.404;11.738;2023-02-18T01:04:24;97075.94;;;11.59;74.79
31357;BME280;60001;48.404;11.738;2023-02-18T01:05:55;97065.88;;;11.56;74.81
31357;BME280;60001;48.404;11.738;2023-02-18T01:07:26;97073.56;;;11.58;74.79
31357;BME280;60001;48.404;11.738;2023-02-18T01:09:00;97075.63;;;11.56;75.03
31357;BME280;60001;48.404;11.738;2023-02-18T01:10:32;97062.06;;;11.52;74.72
31357;BME280;60001;48.404;11.738;2023-02-18T01:12:04;97073.56;;;11.58;74.51
31357;BME280;60001;48.404;11.738;2023-02-18T01:13:36;97083.34;;;11.57;74.45
31357;BME280;60001;48.404;11.738;2023-02-18T01:15:08;97080.19;;;11.60;74.64
31357;BME280;60001;48.404;11.738;2023-02-18T01:16:40;97068.50;;;11.56;74.82
31357;BME280;60001;48.404;11.738;2023-02-18T01:18:12;97072.75;;;11.57;74.88
31357;BME280;60001;48.404;11.738;2023-02-18T01:19:43;97083.88;;;11.59;74.61
31357;BME280;60001;48.404;11.738;2023-02-18T01:21:15;97073.56;;;11.58;74.34
31357;BME280;60001;48.404;11.738;2023-02-18T01:22:48;97077.00;;;11.58;74.88
31357;BME280;60001;48.404;11.738;2023-02-18T01:24:21;97076.75;;;11.60;74.85
31357;BME280;60001;48.404;11.738;2023-02-18T01:25:53;97083.09;;;11.59;74.50
31357;BME280;60001;48.404;11.738;2023-02-18T01:27:24;97075.16;;;11.59;74.64
31357;BME280;60001;48.404;11.738;2023-02-18T01:28:56;97070.41;;;11.61;74.83
31357;BME280;60001;48.404;11.738;2023-02-18T01:30:28;97072.50;;;11.59;74.54
31357;BME280;60001;48.404;11.738;2023-02-18T01:31:59;97069.84;;;11.59;75.02
31357;BME280;60001;48.404;11.738;2023-02-18T01:33:32;97065.06;;;11.56;74.56
31357;BME280;60001;48.404;11.738;2023-02-18T01:35:03;97054.94;;;11.52;74.86
31357;BME280;60001;48.404;11.738;2023-02-18T01:36:36;97064.47;;;11.53;74.91
31357;BME280;60001;48.404;11.738;2023-02-18T01:38:09;97057.84;;;11.51;74.83
31357;BME280;60001;48.404;11.738;2023-02-18T01:39:42;97064.25;;;11.55;75.17
31357;BME280;60001;48.404;11.738;2023-02-18T01:41:14;97060.31;;;11.58;74.79
31357;BME280;60001;48.404;11.738;2023-02-18T01:42:48;97060.09;;;11.59;74.76
31357;BME280;60001;48.404;11.738;2023-02-18T01:44:22;97063.53;;;11.60;74.96
31357;BME280;60001;48.404;11.738;2023-02-18T01:46:03;97061.94;;;11.59;74.72
31357;BME280;60001;48.404;11.738;2023-02-18T01:47:35;97056.63;;;11.59;74.75
31357;BME280;60001;48.404;11.738;2023-02-18T01:49:07;97061.03;;;11.53;74.82
31357;BME280;60001;48.404;11.738;2023-02-18T01:50:44;97062.31;;;11.50;75.41
31357;BME280;60001;48.404;11.738;2023-02-18T01:52:20;97058.97;;;11.55;75.30
31357;BME280;60001;48.404;11.738;2023-02-18T01:53:59;97053.69;;;11.55;74.76
31357;BME280;60001;48.404;11.738;2023-02-18T01:55:36;97041.97;;;11.51;75.07
31357;BME280;60001;48.404;11.738;2023-02-18T01:57:13;97049.25;;;11.61;74.72
31357;BME280;60001;48.404;11.738;2023-02-18T01:58:45;97043.09;;;11.55;75.29
31357;BME280;60001;48.404;11.738;2023-02-18T02:00:19;97039.66;;;11.55;75.21
31357;BME280;60001;48.404;11.738;2023-02-18T02:01:53;97030.97;;;11.59;75.26
31357;BME280;60001;48.404;11.738;2023-02-18T02:03:25;97027.00;;;11.57;74.81
31357;BME280;60001;48.404;11.738;2023-02-18T02:04:56;97012.88;;;11.51;74.93
31357;BME280;60001;48.404;11.738;2023-02-18T02:06:29;97035.00;;;11.62;75.22
31357;BME280;60001;48.404;11.738;2023-02-18T02:08:02;97025.44;;;11.61;74.90
31357;BME280;60001;48.404;11.738;2023-02-18T02:09:35;97016.31;;;11.51;75.10
31357;BME280;60001;48.404;11.738;2023-02-18T02:11:22;97012.72;;;11.58;75.06
31357;BME280;60001;48.404;11.738;2023-02-18T02:13:02;97020.91;;;11.56;75.36
31357;BME280;60001;48.404;11.738;2023-02-18T02:14:53;97012.72;;;11.58;75.26
31357;BME280;60001;48.404;11.738;2023-02-18T02:16:38;97026.75;;;11.58;75.34
31357;BME280;60001;48.404;11.738;2023-02-18T02:18:28;97019.06;;;11.57;75.40
31357;BME280;60001;48.404;11.738;2023-02-18T02:20:46;97020.97;;;11.61;75.10
31357;BME280;60001;48.404;11.738;2023-02-18T02:22:53;97022.81;;;11.61;75.03
31357;BME280;60001;48.404;11.738;2023-02-18T02:24:56;97008.94;;;11.53;75.54
31357;BME280;60001;48.404;11.738;2023-02-18T02:26:58;97018.31;;;11.61;75.19
31357;BME280;60001;48.404;11.738;2023-02-18T02:28:58;97031.78;;;11.60;75.32
31357;BME280;60001;48.404;11.738;2023-02-18T02:31:11;97024.66;;;11.60;75.43
31357;BME280;60001;48.404;11.738;2023-02-18T02:33:23;97035.22;;;11.60;75.65
31357;BME280;60001;48.404;11.738;2023-02-18T02:35:05;97022.25;;;11.59;75.68
31357;BME280;60001;48.404;11.738;2023-02-18T02:36:47;97028.84;;;11.56;75.70
31357;BME280;60001;48.404;11.738;2023-02-18T02:38:30;97020.91;;;11.56;75.70
31357;BME280;60001;48.404;11.738;2023-02-18T02:40:17;97030.44;;;11.57;75.57
31357;BME280;60001;48.404;11.738;2023-02-18T02:41:57;97032.84;;;11.59;75.49
31357;BME280;60001;48.404;11.738;2023-02-18T02:43:43;97019.06;;;11.57;75.56
31357;BME280;60001;48.404;11.738;2023-02-18T02:45:26;97022.00;;;11.60;75.75
31357;BME280;60001;48.404;11.738;2023-02-18T02:47:10;97025.44;;;11.61;75.58
31357;BME280;60001;48.404;11.738;2023-02-18T02:48:51;97016.25;;;11.63;75.34
31357;BME280;60001;48.404;11.738;2023-02-18T02:50:37;97021.53;;;11.63;75.19
31357;BME280;60001;48.404;11.738;2023-02-18T02:52:16;97014.88;;;11.61;75.18
31357;BME280;60001;48.404;11.738;2023-02-18T02:53:50;97016.97;;;11.59;75.45
31357;BME280;60001;48.404;11.738;2023-02-18T02:55:22;97021.19;;;11.60;75.35
31357;BME280;60001;48.404;11.738;2023-02-18T02:57:05;97016.72;;;11.60;75.52
31357;BME280;60001;48.404;11.738;2023-02-18T02:58:37;97010.31;;;11.56;75.13
31357;BME280;60001;48.404;11.738;2023-02-18T03:00:12;97012.22;;;11.61;75.27
31357;BME280;60001;48.404;11.738;2023-02-18T03:02:00;97012.16;;;11.56;74.91
31357;BME280;60001;48.404;11.738;2023-02-18T03:08:03;97003.66;;;11.53;74.96
31357;BME280;60001;48.404;11.738;2023-02-18T03:09:47;96999.16;;;11.54;74.92
31357;BME280;60001;48.404;11.738;2023-02-18T03:11:23;97000.19;;;11.53;74.84
31357;BME280;60001;48.404;11.738;2023-02-18T03:13:03;96996.50;;;11.54;75.04
31357;BME280;60001;48.404;11.738;2023-02-18T03:14:44;97000.44;;;11.51;74.56
31357;BME280;60001;48.404;11.738;2023-02-18T03:16:26;96991.41;;;11.47;74.96
31357;BME280;60001;48.404;11.738;2023-02-18T03:18:04;96999.56;;;11.46;75.00
31357;BME280;60001;48.404;11.738;2023-02-18T03:19:41;97008.28;;;11.46;74.83
31357;BME280;60001;48.404;11.738;2023-02-18T03:21:26;97003.81;;;11.47;74.67
31357;BME280;60001;48.404;11.738;2023-02-18T03:23:02;97006.78;;;11.50;74.77
31357;BME280;60001;48.404;11.738;2023-02-18T03:24:38;97008.53;;;11.45;74.77
31357;BME280;60001;48.404;11.738;2023-02-18T03:26:14;97002.00;;;11.47;74.66
31357;BME280;60001;48.404;11.738;2023-02-18T03:27:52;97005.44;;;11.48;74.79
31357;BME280;60001;48.404;11.738;2023-02-18T03:29:26;96999.56;;;11.46;74.89
31357;BME280;60001;48.404;11.738;2023-02-18T03:31:06;97000.94;;;11.48;74.80
31357;BME280;60001;48.404;11.738;2023-02-18T03:32:40;97005.97;;;11.50;74.74
31357;BME280;60001;48.404;11.738;2023-02-18T03:34:17;96987.06;;;11.41;74.59
31357;BME280;60001;48.404;11.738;2023-02-18T03:35:53;96991.63;;;11.46;74.82
31357;BME280;60001;48.404;11.738;2023-02-18T03:37:26;96996.91;;;11.46;74.52
31357;BME280;60001;48.404;11.738;2023-02-18T03:39:03;97002.00;;;11.47;74.43
31357;BME280;60001;48.404;11.738;2023-02-18T03:40:35;96995.16;;;11.35;74.82
31357;BME280;60001;48.404;11.738;2023-02-18T03:42:07;97000.06;;;11.43;74.56
31357;BME280;60001;48.404;11.738;2023-02-18T03:43:39;96995.00;;;11.41;74.34
31357;BME280;60001;48.404;11.738;2023-02-18T03:45:11;96995.00;;;11.41;74.83
31357;BME280;60001;48.404;11.738;2023-02-18T03:46:44;96998.50;;;11.47;74.52
31357;BME280;60001;48.404;11.738;2023-02-18T03:48:16;96995.31;;;11.45;74.37
31357;BME280;60001;48.404;11.738;2023-02-18T03:49:47;96992.03;;;11.38;74.54
31357;BME280;60001;48.404;11.738;2023-02-18T03:51:19;96988.66;;;11.42;74.81
31357;BME280;60001;48.404;11.738;2023-02-18T03:52:51;96994.22;;;11.41;74.68
31357;BME280;60001;48.404;11.738;2023-02-18T03:54:23;96991.31;;;11.42;74.66
31357;BME280;60001;48.404;11.738;2023-02-18T03:55:54;96997.97;;;11.45;74.54
31357;BME280;60001;48.404;11.738;2023-02-18T03:57:25;96997.16;;;11.44;74.50
31357;BME280;60001;48.404;11.738;2023-02-18T03:58:57;97000.59;;;11.45;74.62
31357;BME280;60001;48.404;11.738;2023-02-18T04:00:29;97007.50;;;11.46;74.29
31357;BME280;60001;48.404;11.738;2023-02-18T04:02:01;97005.09;;;11.44;74.37
31357;BME280;60001;48.404;11.738;2023-02-18T04:03:35;96996.91;;;11.46;74.35
31357;BME280;60001;48.404;11.738;2023-02-18T04:05:08;97003.81;;;11.47;74.41
31357;BME280;60001;48.404;11.738;2023-02-18T04:06:40;96994.50;;;11.44;74.42
31357;BME280;60001;48.404;11.738;2023-02-18T04:08:13;96998.66;;;11.40;74.43
31357;BME280;60001;48.404;11.738;2023-02-18T04:09:45;96995.81;;;11.42;74.65
31357;BME280;60001;48.404;11.738;2023-02-18T04:11:17;96995.56;;;11.43;74.41
31357;BME280;60001;48.404;11.738;2023-02-18T04:12:49;97000.28;;;11.41;74.52
31357;BME280;60001;48.404;11.738;2023-02-18T04:14:20;97006.38;;;11.42;74.64
31357;BME280;60001;48.404;11.738;2023-02-18T04:15:51;97002.94;;;11.41;74.55
31357;BME280;60001;48.404;11.738;2023-02-18T04:17:23;97001.25;;;11.35;74.78
31357;BME280;60001;48.404;11.738;2023-02-18T04:18:54;96982.91;;;11.29;74.51
31357;BME280;60001;48.404;11.738;2023-02-18T04:20:26;97005.25;;;11.38;74.62
31357;BME280;60001;48.404;11.738;2023-02-18T04:21:58;97005.00;;;11.39;74.64
31357;BME280;60001;48.404;11.738;2023-02-18T04:23:31;97002.13;;;11.41;74.61
31357;BME280;60001;48.404;11.738;2023-02-18T04:25:02;97011.09;;;11.40;73.88
31357;BME280;60001;48.404;11.738;2023-02-18T04:26:34;97004.50;;;11.25;74.19
31357;BME280;60001;48.404;11.738;2023-02-18T04:28:06;97013.88;;;11.33;74.33
31357;BME280;60001;48.404;11.738;2023-02-18T04:29:37;97008.38;;;11.35;74.00
31357;BME280;60001;48.404;11.738;2023-02-18T04:31:08;97007.59;;;11.34;74.00
31357;BME280;60001;48.404;11.738;2023-02-18T04:32:41;97000.19;;;11.36;73.53
31357;BME280;60001;48.404;11.738;2023-02-18T04:34:12;97002.34;;;11.39;73.74
31357;BME280;60001;48.404;11.738;2023-02-18T04:35:45;97002.34;;;11.39;73.36
31357;BME280;60001;48.404;11.738;2023-02-18T04:37:16;97007.44;;;11.41;73.64
31357;BME280;60001;48.404;11.738;2023-02-18T04:38:50;97005.59;;;11.41;73.43
31357;BME280;60001;48.404;11.738;2023-02-18T04:40:22;97006.38;;;11.42;73.60
31357;BME280;60001;48.404;11.738;2023-02-18T04:41:54;97004.28;;;11.44;73.47
31357;BME280;60001;48.404;11.738;2023-02-18T04:43:25;97004.84;;;11.46;73.59
31357;BME280;60001;48.404;11.738;2023-02-18T04:44:57;97011.19;;;11.45;73.36
31357;BME280;60001;48.404;11.738;2023-02-18T04:46:29;97012.56;;;11.47;73.69
31357;BME280;60001;48.404;11.738;2023-02-18T04:48:01;97014.06;;;11.43;73.72
31357;BME280;60001;48.404;11.738;2023-02-18T04:49:33;97018.00;;;11.41;74.25
31357;BME280;60001;48.404;11.738;2023-02-18T04:51:05;97017.41;;;11.39;74.24
31357;BME280;60001;48.404;11.738;2023-02-18T04:52:37;97012.72;;;11.41;74.49
31357;BME280;60001;48.404;11.738;2023-02-18T04:54:10;97009.81;;;11.42;74.33
31357;BME280;60001;48.404;11.738;2023-02-18T04:55:41;97007.34;;;11.36;74.78
31357;BME280;60001;48.404;11.738;2023-02-18T04:57:13;96997.88;;;11.40;75.09
31357;BME280;60001;48.404;11.738;2023-02-18T04:58:44;97002.13;;;11.41;74.72
31357;BME280;60001;48.404;11.738;2023-02-18T05:00:18;96988.19;;;11.29;75.33
31357;BME280;60001;48.404;11.738;2023-02-18T05:01:50;96995.16;;;11.35;75.20
31357;BME280;60001;48.404;11.738;2023-02-18T05:03:22;96993.31;;;11.35;74.98
31357;BME280;60001;48.404;11.738;2023-02-18T05:04:54;96998.50;;;11.30;75.54
31357;BME280;60001;48.404;11.738;2023-02-18T05:06:26;97008.59;;;11.33;75.33
31357;BME280;60001;48.404;11.738;2023-02-18T05:07:58;97003.56;;;11.32;75.53
31357;BME280;60001;48.404;11.738;2023-02-18T05:09:31;97003.09;;;11.35;75.26
31357;BME280;60001;48.404;11.738;2023-02-18T05:11:05;97001.25;;;11.35;75.19
31357;BME280;60001;48.404;11.738;2023-02-18T05:12:37;96997.00;;;11.34;75.02
31357;BME280;60001;48.404;11.738;2023-02-18T05:14:09;96994.56;;;11.33;75.29
31357;BME280;60001;48.404;11.738;2023-02-18T05:15:41;96985.28;;;11.30;75.45
31357;BME280;60001;48.404;11.738;2023-02-18T05:17:12;97001.72;;;11.32;75.69
31357;BME280;60001;48.404;11.738;2023-02-18T05:18:44;96994.56;;;11.33;75.09
31357;BME280;60001;48.404;11.738;2023-02-18T05:20:16;96991.94;;;11.33;75.52
31357;BME280;60001;48.404;11.738;2023-02-18T05:21:48;96998.03;;;11.33;75.17
31357;BME280;60001;48.404;11.738;2023-02-18T05:23:19;96997.22;;;11.33;74.89
31357;BME280;60001;48.404;11.738;2023-02-18T05:24:53;97003.88;;;11.35;75.04
31357;BME280;60001;48.404;11.738;2023-02-18T05:26:25;96994.66;;;11.38;75.01
31357;BME280;60001;48.404;11.738;2023-02-18T05:27:56;96995.16;;;11.35;75.19
31357;BME280;60001;48.404;11.738;2023-02-18T05:29:27;96997.00;;;11.34;74.87
31357;BME280;60001;48.404;11.738;2023-02-18T05:30:59;97002.75;;;11.31;74.94
31357;BME280;60001;48.404;11.738;2023-02-18T05:32:31;96993.94;;;11.25;75.21
31357;BME280;60001;48.404;11.738;2023-02-18T05:34:03;96996.41;;;11.32;75.02
31357;BME280;60001;48.404;11.738;2023-02-18T05:35:35;96995.47;;;11.38;74.78
31357;BME280;60001;48.404;11.738;2023-02-18T05:37:07;96991.94;;;11.33;75.09
31357;BME280;60001;48.404;11.738;2023-02-18T05:38:41;96981.03;;;11.29;74.94
31357;BME280;60001;48.404;11.738;2023-02-18T05:40:14;96987.78;;;11.37;74.65
31357;BME280;60001;48.404;11.738;2023-02-18T05:41:45;96984.50;;;11.30;74.68
31357;BME280;60001;48.404;11.738;2023-02-18T05:43:17;96977.06;;;11.27;74.65
31357;BME280;60001;48.404;11.738;2023-02-18T05:44:49;96981.94;;;11.35;74.76
31357;BME280;60001;48.404;11.738;2023-02-18T05:46:22;96981.44;;;11.38;74.53
31357;BME280;60001;48.404;11.738;2023-02-18T05:47:54;96979.28;;;11.35;74.56
31357;BME280;60001;48.404;11.738;2023-02-18T05:49:27;96984.16;;;11.26;74.62
31357;BME280;60001;48.404;11.738;2023-02-18T05:50:59;96980.72;;;11.25;74.24
31357;BME280;60001;48.404;11.738;2023-02-18T05:52:31;96979.44;;;11.28;74.29
31357;BME280;60001;48.404;11.738;2023-02-18T05:54:03;96973.91;;;11.30;74.26
31357;BME280;60001;48.404;11.738;2023-02-18T05:55:35;96977.91;;;11.32;73.92
31357;BME280;60001;48.404;11.738;2023-02-18T05:57:09;96976.31;;;11.31;73.84
31357;BME280;60001;48.404;11.738;2023-02-18T05:58:41;96977.91;;;11.32;73.92
31357;BME280;60001;48.404;11.738;2023-02-18T06:00:12;96972.41;;;11.34;73.57
31357;BME280;60001;48.404;11.738;2023-02-18T06:01:45;96974.00;;;11.35;73.43
31357;BME280;60001;48.404;11.738;2023-02-18T06:03:16;96974.00;;;11.35;73.44
31357;BME280;60001;48.404;11.738;2023-02-18T06:04:48;96984.59;;;11.35;73.49
31357;BME280;60001;48.404;11.738;2023-02-18T06:06:20;96978.50;;;11.34;73.02
31357;BME280;60001;48.404;11.738;2023-02-18T06:07:51;96986.44;;;11.34;73.30
31357;BME280;60001;48.404;11.738;2023-02-18T06:09:23;96976.22;;;11.26;73.29
31357;BME280;60001;48.404;11.738;2023-02-18T06:10:56;96984.59;;;11.35;73.17
31357;BME280;60001;48.404;11.738;2023-02-18T06:12:28;96985.63;;;11.34;73.13
31357;BME280;60001;48.404;11.738;2023-02-18T06:13:59;96990.97;;;11.39;72.86
31357;BME280;60001;48.404;11.738;2023-02-18T06:15:30;96993.63;;;11.39;73.06
31357;BME280;60001;48.404;11.738;2023-02-18T06:17:02;96994.03;;;11.31;73.01
31357;BME280;60001;48.404;11.738;2023-02-18T06:18:34;96995.38;;;11.33;73.11
31357;BME280;60001;48.404;11.738;2023-02-18T06:20:06;96991.47;;;11.36;73.35
31357;BME280;60001;48.404;11.738;2023-02-18T06:21:38;97006.03;;;11.38;73.25
31357;BME280;60001;48.404;11.738;2023-02-18T06:23:10;97000.66;;;11.33;73.62
31357;BME280;60001;48.404;11.738;2023-02-18T06:24:41;97009.09;;;11.30;73.77
31357;BME280;60001;48.404;11.738;2023-02-18T06:26:15;97008.03;;;11.31;73.75
31357;BME280;60001;48.404;11.738;2023-02-18T06:27:46;97010.22;;;11.34;73.28
31357;BME280;60001;48.404;11.738;2023-02-18T06:29:18;97025.03;;;11.35;73.36
31357;BME280;60001;48.404;11.738;2023-02-18T06:30:49;97015.06;;;11.25;73.47
31357;BME280;60001;48.404;11.738;2023-02-18T06:32:21;97023.09;;;11.31;73.31
31357;BME280;60001;48.404;11.738;2023-02-18T06:33:52;97014.47;;;11.35;73.01
31357;BME280;60001;48.404;11.738;2023-02-18T06:35:24;97011.81;;;11.35;72.41
31357;BME280;60001;48.404;11.738;2023-02-18T06:36:56;97019.25;;;11.38;72.84
31357;BME280;60001;48.404;11.738;2023-02-18T06:38:28;97013.97;;;11.38;72.75
31357;BME280;60001;48.404;11.738;2023-02-18T06:39:59;97015.34;;;11.41;72.60
31357;BME280;60001;48.404;11.738;2023-02-18T06:41:32;97010.63;;;11.43;72.96
31357;BME280;60001;48.404;11.738;2023-02-18T06:43:04;97008.53;;;11.45;72.67
31357;BME280;60001;48.404;11.738;2023-02-18T06:44:36;97006.13;;;11.43;72.41
31357;BME280;60001;48.404;11.738;2023-02-18T06:46:08;97004.03;;;11.45;72.63
31357;BME280;60001;48.404;11.738;2023-02-18T06:47:40;97003.97;;;11.40;72.85
31357;BME280;60001;48.404;11.738;2023-02-18T06:49:12;97009.03;;;11.42;72.94
31357;BME280;60001;48.404;11.738;2023-02-18T06:50:43;97008.78;;;11.43;73.09
31357;BME280;60001;48.404;11.738;2023-02-18T06:52:15;97007.50;;;11.46;73.13
31357;BME280;60001;48.404;11.738;2023-02-18T06:53:47;97010.63;;;11.43;72.97
31357;BME280;60001;48.404;11.738;2023-02-18T06:55:19;97003.50;;;11.43;73.09
31357;BME280;60001;48.404;11.738;2023-02-18T06:56:52;97004.19;;;11.39;73.25
31357;BME280;60001;48.404;11.738;2023-02-18T06:58:24;97001.91;;;11.42;73.23
31357;BME280;60001;48.404;11.738;2023-02-18T06:59:56;97006.69;;;11.45;72.54
31357;BME280;60001;48.404;11.738;2023-02-18T07:01:28;97006.22;;;11.48;72.84
31357;BME280;60001;48.404;11.738;2023-02-18T07:03:00;97002.28;;;11.51;72.95
31357;BME280;60001;48.404;11.738;2023-02-18T07:04:30;96998.84;;;11.50;73.02
31357;BME280;60001;48.404;11.738;2023-02-18T07:06:03;96998.34;;;11.53;72.42
31357;BME280;60001;48.404;11.738;2023-02-18T07:07:35;97003.66;;;11.53;72.83
31357;BME280;60001;48.404;11.738;2023-02-18T07:09:07;96999.16;;;11.54;72.60
31357;BME280;60001;48.404;11.738;2023-02-18T07:10:39;96995.72;;;11.53;73.22
31357;BME280;60001;48.404;11.738;2023-02-18T07:12:13;96991.56;;;11.58;72.92
31357;BME280;60001;48.404;11.738;2023-02-18T07:13:44;96996.94;;;11.63;73.03
31357;BME280;60001;48.404;11.738;2023-02-18T07:15:16;96998.53;;;11.64;72.65
31357;BME280;60001;48.404;11.738;2023-02-18T07:16:53;96982.50;;;11.53;72.74
31357;BME280;60001;48.404;11.738;2023-02-18T07:18:25;96989.22;;;11.61;72.50
31357;BME280;60001;48.404;11.738;2023-02-18T07:19:57;96989.97;;;11.57;72.56
31357;BME280;60001;48.404;11.738;2023-02-18T07:21:28;97006.22;;;11.65;72.25
31357;BME280;60001;48.404;11.738;2023-02-18T07:23:00;96994.59;;;11.66;72.22
31357;BME280;60001;48.404;11.738;2023-02-18T07:24:32;96999.88;;;11.66;71.86
31357;BME280;60001;48.404;11.738;2023-02-18T07:26:06;96994.84;;;11.65;72.07
31357;BME280;60001;48.404;11.738;2023-02-18T07:27:39;96996.19;;;11.67;72.45
31357;BME280;60001;48.404;11.738;2023-02-18T07:29:11;96997.31;;;11.71;72.01
31357;BME280;60001;48.404;11.738;2023-02-18T07:30:43;96999.97;;;11.71;72.34
31357;BME280;60001;48.404;11.738;2023-02-18T07:32:18;96991.53;;;11.74;72.05
31357;BME280;60001;48.404;11.738;2023-02-18T07:33:50;96995.81;;;11.75;72.08
31357;BME280;60001;48.404;11.738;2023-02-18T07:35:21;96997.72;;;11.80;72.03
31357;BME280;60001;48.404;11.738;2023-02-18T07:36:53;96992.41;;;11.80;72.13
31357;BME280;60001;48.404;11.738;2023-02-18T07:38:26;96996.69;;;11.81;72.05
31357;BME280;60001;48.404;11.738;2023-02-18T07:39:59;96996.22;;;11.84;71.72
31357;BME280;60001;48.404;11.738;2023-02-18T07:41:31;96990.94;;;11.84;71.80
31357;BME280;60001;48.404;11.738;2023-02-18T07:43:04;96990.94;;;11.84;71.49
31357;BME280;60001;48.404;11.738;2023-02-18T07:44:37;97006.56;;;11.86;71.82
31357;BME280;60001;48.404;11.738;2023-02-18T07:46:08;97004.72;;;11.86;71.41
31357;BME280;60001;48.404;11.738;2023-02-18T07:47:40;97003.38;;;11.84;71.71
31357;BME280;60001;48.404;11.738;2023-02-18T07:49:12;96996.22;;;11.84;71.26
31357;BME280;60001;48.404;11.738;2023-02-18T07:50:45;97009.28;;;11.91;70.88
31357;BME280;60001;48.404;11.738;2023-02-18T07:52:16;96996.94;;;11.96;71.24
31357;BME280;60001;48.404;11.738;2023-02-18T07:53:48;96995.25;;;11.90;71.12
31357;BME280;60001;48.404;11.738;2023-02-18T07:55:20;96982.09;;;11.95;70.54
31357;BME280;60001;48.404;11.738;2023-02-18T07:56:52;96987.53;;;11.89;70.41
31357;BME280;60001;48.404;11.738;2023-02-18T07:58:28;96987.63;;;11.94;69.82
31357;BME280;60001;48.404;11.738;2023-02-18T08:00:00;96986.66;;;12.00;70.42
31357;BME280;60001;48.404;11.738;2023-02-18T08:01:32;96984.38;;;12.08;70.08
31357;BME280;60001;48.404;11.738;2023-02-18T08:03:03;96979.66;;;12.11;69.78
31357;BME280;60001;48.404;11.738;2023-02-18T08:04:35;96982.63;;;12.14;69.90
31357;BME280;60001;48.404;11.738;2023-02-18T08:06:07;96980.03;;;12.19;69.70
31357;BME280;60001;48.404;11.738;2023-02-18T08:07:39;96989.03;;;12.18;69.54
31357;BME280;60001;48.404;11.738;2023-02-18T08:09:12;96975.81;;;12.18;69.52
31357;BME280;60001;48.404;11.738;2023-02-18T08:10:45;96980.47;;;12.11;69.85
31357;BME280;60001;48.404;11.738;2023-02-18T08:12:18;96980.28;;;12.18;69.75
31357;BME280;60001;48.404;11.738;2023-02-18T08:13:51;96977.47;;;12.24;69.53
31357;BME280;60001;48.404;11.738;2023-02-18T08:15:23;96978.56;;;12.28;68.85
31357;BME280;60001;48.404;11.738;2023-02-18T08:16:55;96968.31;;;12.32;69.35